sensor_id;sensor_type;location;lat;lon;timestamp;temperature;humidity
58447;DHT22;44240;51.840;7.258;2023-12-22T00:01:26;8.30;74.30
58447;DHT22;44240;51.840;7.258;2023-12-22T00:03:53;8.30;74.30
58447;DHT22;44240;51.840;7.258;2023-12-22T00:06:20;8.30;74.30
58447;DHT22;44240;51.840;7.258;2023-12-22T00:08:47;8.30;74.50
58447;DHT22;44240;51.840;7.258;2023-12-22T00:11:14;8.30;74.50
58447;DHT22;44240;51.840;7.258;2023-12-22T00:13:41;8.20;74.60
58447;DHT22;44240;51.840;7.258;2023-12-22T00:16:08;8.20;74.60
58447;DHT22;44240;51.840;7.258;2023-12-22T00:18:36;8.20;74.80
58447;DHT22;44240;51.840;7.258;2023-12-22T00:21:03;8.20;74.80
58447;DHT22;44240;51.840;7.258;2023-12-22T00:23:30;8.20;74.90
58447;DHT22;44240;51.840;7.258;2023-12-22T00:25:59;8.20;74.90
58447;DHT22;44240;51.840;7.258;2023-12-22T00:28:25;8.20;75.10
58447;DHT22;44240;51.840;7.258;2023-12-22T00:30:52;8.10;75.10
58447;DHT22;44240;51.840;7.258;2023-12-22T00:33:19;8.20;75.20
58447;DHT22;44240;51.840;7.258;2023-12-22T00:35:46;8.10;75.10
58447;DHT22;44240;51.840;7.258;2023-12-22T00:38:12;8.10;75.20
58447;DHT22;44240;51.840;7.258;2023-12-22T00:40:39;8.10;75.30
58447;DHT22;44240;51.840;7.258;2023-12-22T00:43:06;8.10;75.30
58447;DHT22;44240;51.840;7.258;2023-12-22T00:45:33;8.00;75.30
58447;DHT22;44240;51.840;7.258;2023-12-22T00:47:59;8.00;75.40
58447;DHT22;44240;51.840;7.258;2023-12-22T00:50:26;8.00;75.50
58447;DHT22;44240;51.840;7.258;2023-12-22T00:52:53;8.00;75.50
58447;DHT22;44240;51.840;7.258;2023-12-22T00:55:19;8.00;75.60
58447;DHT22;44240;51.840;7.258;2023-12-22T00:57:46;7.90;75.60
58447;DHT22;44240;51.840;7.258;2023-12-22T01:00:14;7.90;75.70
58447;DHT22;44240;51.840;7.258;2023-12-22T01:02:41;7.90;75.80
58447;DHT22;44240;51.840;7.258;2023-12-22T01:05:08;7.90;75.80
58447;DHT22;44240;51.840;7.258;2023-12-22T01:07:35;7.80;75.80
58447;DHT22;44240;51.840;7.258;2023-12-22T01:10:02;7.90;75.90
58447;DHT22;44240;51.840;7.258;2023-12-22T01:12:30;7.80;75.90
58447;DHT22;44240;51.840;7.258;2023-12-22T01:14:57;7.80;76.10
58447;DHT22;44240;51.840;7.258;2023-12-22T01:17:24;7.80;76.20
58447;DHT22;44240;51.840;7.258;2023-12-22T01:19:51;7.90;76.50
58447;DHT22;44240;51.840;7.258;2023-12-22T01:22:18;7.90;76.60
58447;DHT22;44240;51.840;7.258;2023-12-22T01:24:45;7.90;76.50
58447;DHT22;44240;51.840;7.258;2023-12-22T01:27:12;7.90;76.60
58447;DHT22;44240;51.840;7.258;2023-12-22T01:29:39;7.90;76.60
58447;DHT22;44240;51.840;7.258;2023-12-22T01:32:06;7.90;76.60
58447;DHT22;44240;51.840;7.258;2023-12-22T01:34:33;7.90;76.60
58447;DHT22;44240;51.840;7.258;2023-12-22T01:37:00;8.00;76.40
58447;DHT22;44240;51.840;7.258;2023-12-22T01:39:27;8.00;76.40
58447;DHT22;44240;51.840;7.258;2023-12-22T01:41:53;8.00;76.20
58447;DHT22;44240;51.840;7.258;2023-12-22T01:44:20;8.00;76.20
58447;DHT22;44240;51.840;7.258;2023-12-22T01:46:47;8.00;76.20
58447;DHT22;44240;51.840;7.258;2023-12-22T01:49:15;8.00;76.20
58447;DHT22;44240;51.840;7.258;2023-12-22T01:51:42;8.00;76.30
58447;DHT22;44240;51.840;7.258;2023-12-22T01:54:10;8.00;76.30
58447;DHT22;44240;51.840;7.258;2023-12-22T01:56:37;8.00;77.50
58447;DHT22;44240;51.840;7.258;2023-12-22T01:59:04;8.00;76.40
58447;DHT22;44240;51.840;7.258;2023-12-22T02:01:31;8.00;76.50
58447;DHT22;44240;51.840;7.258;2023-12-22T02:03:59;8.00;76.30
58447;DHT22;44240;51.840;7.258;2023-12-22T02:06:27;8.00;76.20
58447;DHT22;44240;51.840;7.258;2023-12-22T02:08:57;8.00;76.20
58447;DHT22;44240;51.840;7.258;2023-12-22T02:11:24;8.10;76.20
58447;DHT22;44240;51.840;7.258;2023-12-22T02:13:51;8.10;76.10
58447;DHT22;44240;51.840;7.258;2023-12-22T02:16:45;8.10;75.70
58447;DHT22;44240;51.840;7.258;2023-12-22T02:19:27;8.10;75.90
58447;DHT22;44240;51.840;7.258;2023-12-22T02:22:07;8.10;75.50
58447;DHT22;44240;51.840;7.258;2023-12-22T02:24:37;8.10;75.40
58447;DHT22;44240;51.840;7.258;2023-12-22T02:27:06;8.20;74.90
58447;DHT22;44240;51.840;7.258;2023-12-22T02:29:37;8.20;74.80
58447;DHT22;44240;51.840;7.258;2023-12-22T02:32:12;8.20;74.70
58447;DHT22;44240;51.840;7.258;2023-12-22T02:34:41;8.20;74.60
58447;DHT22;44240;51.840;7.258;2023-12-22T02:37:10;8.20;74.50
58447;DHT22;44240;51.840;7.258;2023-12-22T02:39:38;8.20;74.30
58447;DHT22;44240;51.840;7.258;2023-12-22T02:42:06;8.20;74.30
58447;DHT22;44240;51.840;7.258;2023-12-22T02:44:33;8.20;74.50
58447;DHT22;44240;51.840;7.258;2023-12-22T02:47:00;8.20;74.70
58447;DHT22;44240;51.840;7.258;2023-12-22T02:49:27;8.20;75.00
58447;DHT22;44240;51.840;7.258;2023-12-22T02:51:53;8.20;75.40
58447;DHT22;44240;51.840;7.258;2023-12-22T02:54:20;8.20;75.60
58447;DHT22;44240;51.840;7.258;2023-12-22T02:56:47;8.20;76.00
58447;DHT22;44240;51.840;7.258;2023-12-22T02:59:14;8.20;75.60
58447;DHT22;44240;51.840;7.258;2023-12-22T03:01:41;8.10;75.20
58447;DHT22;44240;51.840;7.258;2023-12-22T03:04:08;8.00;75.60
58447;DHT22;44240;51.840;7.258;2023-12-22T03:06:34;8.00;76.10
58447;DHT22;44240;51.840;7.258;2023-12-22T03:09:01;7.80;76.70
58447;DHT22;44240;51.840;7.258;2023-12-22T03:11:29;7.70;76.90
58447;DHT22;44240;51.840;7.258;2023-12-22T03:13:56;7.60;77.30
58447;DHT22;44240;51.840;7.258;2023-12-22T03:16:22;7.50;77.70
58447;DHT22;44240;51.840;7.258;2023-12-22T03:18:49;7.40;78.00
58447;DHT22;44240;51.840;7.258;2023-12-22T03:21:20;7.30;78.40
58447;DHT22;44240;51.840;7.258;2023-12-22T03:23:46;7.30;78.70
58447;DHT22;44240;51.840;7.258;2023-12-22T03:26:13;7.30;79.00
58447;DHT22;44240;51.840;7.258;2023-12-22T03:28:40;7.30;79.20
58447;DHT22;44240;51.840;7.258;2023-12-22T03:31:07;7.30;79.30
58447;DHT22;44240;51.840;7.258;2023-12-22T03:33:34;7.30;79.30
58447;DHT22;44240;51.840;7.258;2023-12-22T03:36:01;7.30;79.40
58447;DHT22;44240;51.840;7.258;2023-12-22T03:38:27;7.30;79.30
58447;DHT22;44240;51.840;7.258;2023-12-22T03:40:54;7.30;79.10
58447;DHT22;44240;51.840;7.258;2023-12-22T03:43:21;7.40;79.10
58447;DHT22;44240;51.840;7.258;2023-12-22T03:45:48;7.40;78.40
58447;DHT22;44240;51.840;7.258;2023-12-22T03:48:14;7.40;78.80
58447;DHT22;44240;51.840;7.258;2023-12-22T03:50:41;7.40;78.80
58447;DHT22;44240;51.840;7.258;2023-12-22T03:53:08;7.40;78.80
58447;DHT22;44240;51.840;7.258;2023-12-22T03:55:35;7.40;78.60
58447;DHT22;44240;51.840;7.258;2023-12-22T03:58:02;7.40;78.60
58447;DHT22;44240;51.840;7.258;2023-12-22T04:00:30;7.40;78.90
58447;DHT22;44240;51.840;7.258;2023-12-22T04:02:57;7.40;78.80
58447;DHT22;44240;51.840;7.258;2023-12-22T04:05:24;7.40;78.70
58447;DHT22;44240;51.840;7.258;2023-12-22T04:07:51;7.40;78.40
58447;DHT22;44240;51.840;7.258;2023-12-22T04:10:18;7.40;78.40
58447;DHT22;44240;51.840;7.258;2023-12-22T04:12:45;7.40;78.50
58447;DHT22;44240;51.840;7.258;2023-12-22T04:15:12;7.40;78.60
58447;DHT22;44240;51.840;7.258;2023-12-22T04:17:39;7.40;78.70
58447;DHT22;44240;51.840;7.258;2023-12-22T04:20:07;7.40;78.90
58447;DHT22;44240;51.840;7.258;2023-12-22T04:22:34;7.40;78.90
58447;DHT22;44240;51.840;7.258;2023-12-22T04:25:00;7.40;79.20
58447;DHT22;44240;51.840;7.258;2023-12-22T04:27:27;7.50;79.30
58447;DHT22;44240;51.840;7.258;2023-12-22T04:29:54;7.50;79.40
58447;DHT22;44240;51.840;7.258;2023-12-22T04:32:21;7.50;79.30
58447;DHT22;44240;51.840;7.258;2023-12-22T04:34:47;7.50;79.30
58447;DHT22;44240;51.840;7.258;2023-12-22T04:37:14;7.40;79.40
58447;DHT22;44240;51.840;7.258;2023-12-22T04:39:41;7.40;79.30
58447;DHT22;44240;51.840;7.258;2023-12-22T04:42:08;7.40;79.40
58447;DHT22;44240;51.840;7.258;2023-12-22T04:44:35;7.40;79.60
58447;DHT22;44240;51.840;7.258;2023-12-22T04:47:01;7.40;79.50
58447;DHT22;44240;51.840;7.258;2023-12-22T04:49:28;7.40;79.50
58447;DHT22;44240;51.840;7.258;2023-12-22T04:51:55;7.40;79.30
58447;DHT22;44240;51.840;7.258;2023-12-22T04:54:27;7.40;79.30
58447;DHT22;44240;51.840;7.258;2023-12-22T04:56:54;7.40;79.10
58447;DHT22;44240;51.840;7.258;2023-12-22T04:59:20;7.40;78.80
58447;DHT22;44240;51.840;7.258;2023-12-22T05:01:47;7.40;78.70
58447;DHT22;44240;51.840;7.258;2023-12-22T05:04:14;7.40;78.70
58447;DHT22;44240;51.840;7.258;2023-12-22T05:06:41;7.40;78.70
58447;DHT22;44240;51.840;7.258;2023-12-22T05:09:07;7.40;78.70
58447;DHT22;44240;51.840;7.258;2023-12-22T05:11:34;7.40;78.50
58447;DHT22;44240;51.840;7.258;2023-12-22T05:14:01;7.40;78.50
58447;DHT22;44240;51.840;7.258;2023-12-22T05:16:28;7.40;78.50
58447;DHT22;44240;51.840;7.258;2023-12-22T05:18:58;7.40;78.60
58447;DHT22;44240;51.840;7.258;2023-12-22T05:21:25;7.40;78.60
58447;DHT22;44240;51.840;7.258;2023-12-22T05:23:52;7.40;78.60
58447;DHT22;44240;51.840;7.258;2023-12-22T05:26:19;7.40;78.50
58447;DHT22;44240;51.840;7.258;2023-12-22T05:28:46;7.30;78.60
58447;DHT22;44240;51.840;7.258;2023-12-22T05:31:13;7.40;78.70
58447;DHT22;44240;51.840;7.258;2023-12-22T05:33:40;7.40;78.70
58447;DHT22;44240;51.840;7.258;2023-12-22T05:36:07;7.40;78.70
58447;DHT22;44240;51.840;7.258;2023-12-22T05:38:38;7.40;78.70
58447;DHT22;44240;51.840;7.258;2023-12-22T05:41:05;7.40;78.80
58447;DHT22;44240;51.840;7.258;2023-12-22T05:43:35;7.40;78.80
58447;DHT22;44240;51.840;7.258;2023-12-22T05:46:01;7.40;78.90
58447;DHT22;44240;51.840;7.258;2023-12-22T05:48:28;7.50;78.90
58447;DHT22;44240;51.840;7.258;2023-12-22T05:50:58;7.50;78.90
58447;DHT22;44240;51.840;7.258;2023-12-22T05:53:25;7.50;78.90
58447;DHT22;44240;51.840;7.258;2023-12-22T05:55:52;7.50;79.00
58447;DHT22;44240;51.840;7.258;2023-12-22T05:58:18;7.50;78.90
58447;DHT22;44240;51.840;7.258;2023-12-22T06:00:45;7.50;78.70
58447;DHT22;44240;51.840;7.258;2023-12-22T06:03:12;7.60;78.50
58447;DHT22;44240;51.840;7.258;2023-12-22T06:05:39;7.60;78.20
58447;DHT22;44240;51.840;7.258;2023-12-22T06:08:06;7.60;78.10
58447;DHT22;44240;51.840;7.258;2023-12-22T06:10:33;7.60;77.80
58447;DHT22;44240;51.840;7.258;2023-12-22T06:13:00;7.60;77.50
58447;DHT22;44240;51.840;7.258;2023-12-22T06:15:30;7.60;77.40
58447;DHT22;44240;51.840;7.258;2023-12-22T06:17:56;7.60;77.30
58447;DHT22;44240;51.840;7.258;2023-12-22T06:20:24;7.60;77.30
58447;DHT22;44240;51.840;7.258;2023-12-22T06:22:52;7.70;77.20
58447;DHT22;44240;51.840;7.258;2023-12-22T06:25:19;7.70;77.00
58447;DHT22;44240;51.840;7.258;2023-12-22T06:27:46;7.70;77.00
58447;DHT22;44240;51.840;7.258;2023-12-22T06:30:13;7.80;77.10
58447;DHT22;44240;51.840;7.258;2023-12-22T06:32:40;7.80;76.50
58447;DHT22;44240;51.840;7.258;2023-12-22T06:35:08;7.80;76.60
58447;DHT22;44240;51.840;7.258;2023-12-22T06:37:39;7.80;76.50
58447;DHT22;44240;51.840;7.258;2023-12-22T06:40:07;7.80;76.50
58447;DHT22;44240;51.840;7.258;2023-12-22T06:42:34;7.80;76.40
58447;DHT22;44240;51.840;7.258;2023-12-22T06:45:00;7.90;76.50
58447;DHT22;44240;51.840;7.258;2023-12-22T06:47:27;7.90;76.50
58447;DHT22;44240;51.840;7.258;2023-12-22T06:49:54;7.80;76.40
58447;DHT22;44240;51.840;7.258;2023-12-22T06:52:21;7.90;76.70
58447;DHT22;44240;51.840;7.258;2023-12-22T06:54:48;7.90;76.60
58447;DHT22;44240;51.840;7.258;2023-12-22T06:57:15;8.00;76.70
58447;DHT22;44240;51.840;7.258;2023-12-22T06:59:44;7.90;76.50
58447;DHT22;44240;51.840;7.258;2023-12-22T07:02:12;8.00;76.60
58447;DHT22;44240;51.840;7.258;2023-12-22T07:07:36;8.00;76.90
58447;DHT22;44240;51.840;7.258;2023-12-22T07:10:04;8.10;77.10
58447;DHT22;44240;51.840;7.258;2023-12-22T07:12:31;8.10;77.10
58447;DHT22;44240;51.840;7.258;2023-12-22T07:14:59;8.10;77.50
58447;DHT22;44240;51.840;7.258;2023-12-22T07:17:26;8.10;77.90
58447;DHT22;44240;51.840;7.258;2023-12-22T07:19:52;8.10;78.10
58447;DHT22;44240;51.840;7.258;2023-12-22T07:22:21;8.20;78.80
58447;DHT22;44240;51.840;7.258;2023-12-22T07:24:48;8.20;79.70
58447;DHT22;44240;51.840;7.258;2023-12-22T07:27:16;8.10;80.30
58447;DHT22;44240;51.840;7.258;2023-12-22T07:29:42;8.10;80.60
58447;DHT22;44240;51.840;7.258;2023-12-22T07:32:09;8.00;80.90
58447;DHT22;44240;51.840;7.258;2023-12-22T07:34:36;8.00;81.20
58447;DHT22;44240;51.840;7.258;2023-12-22T07:37:04;8.00;81.60
58447;DHT22;44240;51.840;7.258;2023-12-22T07:39:34;8.00;81.90
58447;DHT22;44240;51.840;7.258;2023-12-22T07:42:03;8.00;82.20
58447;DHT22;44240;51.840;7.258;2023-12-22T07:44:30;8.00;82.20
58447;DHT22;44240;51.840;7.258;2023-12-22T07:46:59;8.00;82.50
58447;DHT22;44240;51.840;7.258;2023-12-22T07:49:29;8.00;82.40
58447;DHT22;44240;51.840;7.258;2023-12-22T07:51:57;8.00;82.30
58447;DHT22;44240;51.840;7.258;2023-12-22T07:54:24;8.00;82.40
58447;DHT22;44240;51.840;7.258;2023-12-22T07:56:52;8.00;82.70
58447;DHT22;44240;51.840;7.258;2023-12-22T07:59:19;8.00;82.80
58447;DHT22;44240;51.840;7.258;2023-12-22T08:01:56;8.00;82.90
58447;DHT22;44240;51.840;7.258;2023-12-22T08:04:23;8.00;82.90
58447;DHT22;44240;51.840;7.258;2023-12-22T08:06:50;7.90;83.00
58447;DHT22;44240;51.840;7.258;2023-12-22T08:09:18;8.00;83.20
58447;DHT22;44240;51.840;7.258;2023-12-22T08:11:45;8.00;83.40
58447;DHT22;44240;51.840;7.258;2023-12-22T08:14:13;8.00;83.40
58447;DHT22;44240;51.840;7.258;2023-12-22T08:16:40;8.00;83.50
58447;DHT22;44240;51.840;7.258;2023-12-22T08:19:07;8.00;83.40
58447;DHT22;44240;51.840;7.258;2023-12-22T08:21:34;8.00;83.40
58447;DHT22;44240;51.840;7.258;2023-12-22T08:24:11;8.00;83.20
58447;DHT22;44240;51.840;7.258;2023-12-22T08:26:49;8.00;83.20
58447;DHT22;44240;51.840;7.258;2023-12-22T08:29:16;8.00;83.20
58447;DHT22;44240;51.840;7.258;2023-12-22T08:31:43;8.10;83.20
58447;DHT22;44240;51.840;7.258;2023-12-22T08:34:11;8.10;84.10
58447;DHT22;44240;51.840;7.258;2023-12-22T08:36:37;8.10;83.10
58447;DHT22;44240;51.840;7.258;2023-12-22T08:39:05;8.10;82.90
58447;DHT22;44240;51.840;7.258;2023-12-22T08:41:32;8.00;82.90
58447;DHT22;44240;51.840;7.258;2023-12-22T08:44:04;8.00;82.90
58447;DHT22;44240;51.840;7.258;2023-12-22T08:46:32;8.00;82.80
58447;DHT22;44240;51.840;7.258;2023-12-22T08:48:59;7.90;82.70
58447;DHT22;44240;51.840;7.258;2023-12-22T08:51:27;7.90;82.70
58447;DHT22;44240;51.840;7.258;2023-12-22T08:53:54;7.90;82.80
58447;DHT22;44240;51.840;7.258;2023-12-22T08:56:24;7.90;82.90
58447;DHT22;44240;51.840;7.258;2023-12-22T08:58:52;7.90;82.90
58447;DHT22;44240;51.840;7.258;2023-12-22T09:01:22;7.90;82.90
58447;DHT22;44240;51.840;7.258;2023-12-22T09:03:49;8.00;83.00
58447;DHT22;44240;51.840;7.258;2023-12-22T09:06:16;8.00;83.30
58447;DHT22;44240;51.840;7.258;2023-12-22T09:08:44;8.00;83.30
58447;DHT22;44240;51.840;7.258;2023-12-22T09:11:12;8.00;83.20
58447;DHT22;44240;51.840;7.258;2023-12-22T09:13:39;7.90;83.20
58447;DHT22;44240;51.840;7.258;2023-12-22T09:16:06;7.90;83.20
58447;DHT22;44240;51.840;7.258;2023-12-22T09:18:32;7.90;83.30
58447;DHT22;44240;51.840;7.258;2023-12-22T09:21:00;7.90;83.20
58447;DHT22;44240;51.840;7.258;2023-12-22T09:23:27;7.90;83.20
58447;DHT22;44240;51.840;7.258;2023-12-22T09:25:54;7.90;83.30
58447;DHT22;44240;51.840;7.258;2023-12-22T09:28:21;7.90;83.40
58447;DHT22;44240;51.840;7.258;2023-12-22T09:30:48;7.90;83.40
58447;DHT22;44240;51.840;7.258;2023-12-22T09:33:15;7.90;83.40
58447;DHT22;44240;51.840;7.258;2023-12-22T09:35:42;7.90;83.50
58447;DHT22;44240;51.840;7.258;2023-12-22T09:38:10;8.00;83.60
58447;DHT22;44240;51.840;7.258;2023-12-22T09:40:37;8.00;83.60
58447;DHT22;44240;51.840;7.258;2023-12-22T09:43:06;8.00;83.70
58447;DHT22;44240;51.840;7.258;2023-12-22T09:45:35;8.00;83.80
58447;DHT22;44240;51.840;7.258;2023-12-22T09:48:03;8.00;83.90
58447;DHT22;44240;51.840;7.258;2023-12-22T09:50:31;8.10;84.10
58447;DHT22;44240;51.840;7.258;2023-12-22T09:52:59;8.10;84.20
58447;DHT22;44240;51.840;7.258;2023-12-22T09:55:27;8.20;84.50
58447;DHT22;44240;51.840;7.258;2023-12-22T09:57:54;8.20;84.60
58447;DHT22;44240;51.840;7.258;2023-12-22T10:00:22;8.20;84.50
58447;DHT22;44240;51.840;7.258;2023-12-22T10:02:50;8.30;84.50
58447;DHT22;44240;51.840;7.258;2023-12-22T10:05:17;8.30;84.60
58447;DHT22;44240;51.840;7.258;2023-12-22T10:07:46;8.30;84.60
58447;DHT22;44240;51.840;7.258;2023-12-22T10:10:15;8.40;84.70
58447;DHT22;44240;51.840;7.258;2023-12-22T10:12:45;8.40;84.80
58447;DHT22;44240;51.840;7.258;2023-12-22T10:15:13;8.40;85.10
58447;DHT22;44240;51.840;7.258;2023-12-22T10:17:41;8.40;85.10
58447;DHT22;44240;51.840;7.258;2023-12-22T10:20:08;8.40;85.10
58447;DHT22;44240;51.840;7.258;2023-12-22T10:22:35;8.40;85.20
58447;DHT22;44240;51.840;7.258;2023-12-22T10:25:02;8.50;85.20
58447;DHT22;44240;51.840;7.258;2023-12-22T10:27:29;8.50;85.40
58447;DHT22;44240;51.840;7.258;2023-12-22T10:29:58;8.50;85.40
58447;DHT22;44240;51.840;7.258;2023-12-22T10:32:25;8.60;85.60
58447;DHT22;44240;51.840;7.258;2023-12-22T10:34:53;8.60;85.60
58447;DHT22;44240;51.840;7.258;2023-12-22T10:37:21;8.60;85.60
58447;DHT22;44240;51.840;7.258;2023-12-22T10:39:52;8.60;85.60
58447;DHT22;44240;51.840;7.258;2023-12-22T10:42:19;8.60;85.60
58447;DHT22;44240;51.840;7.258;2023-12-22T10:44:46;8.60;85.70
58447;DHT22;44240;51.840;7.258;2023-12-22T10:47:17;8.70;86.00
58447;DHT22;44240;51.840;7.258;2023-12-22T10:49:46;8.70;86.00
58447;DHT22;44240;51.840;7.258;2023-12-22T10:52:17;8.70;86.20
58447;DHT22;44240;51.840;7.258;2023-12-22T10:54:49;8.70;86.20
58447;DHT22;44240;51.840;7.258;2023-12-22T10:57:19;8.70;86.30
58447;DHT22;44240;51.840;7.258;2023-12-22T10:59:47;8.80;86.60
58447;DHT22;44240;51.840;7.258;2023-12-22T11:02:27;8.80;86.80
58447;DHT22;44240;51.840;7.258;2023-12-22T11:05:02;8.80;86.80
58447;DHT22;44240;51.840;7.258;2023-12-22T11:07:35;8.90;86.90
58447;DHT22;44240;51.840;7.258;2023-12-22T11:10:04;8.90;87.00
58447;DHT22;44240;51.840;7.258;2023-12-22T11:12:36;9.00;87.30
58447;DHT22;44240;51.840;7.258;2023-12-22T11:15:04;9.00;87.30
58447;DHT22;44240;51.840;7.258;2023-12-22T11:17:36;9.10;87.40
58447;DHT22;44240;51.840;7.258;2023-12-22T11:20:10;9.10;87.20
58447;DHT22;44240;51.840;7.258;2023-12-22T11:22:39;9.10;87.20
58447;DHT22;44240;51.840;7.258;2023-12-22T11:25:07;9.20;87.10
58447;DHT22;44240;51.840;7.258;2023-12-22T11:27:36;9.30;87.20
58447;DHT22;44240;51.840;7.258;2023-12-22T11:30:05;9.30;87.10
58447;DHT22;44240;51.840;7.258;2023-12-22T11:32:35;9.40;87.20
58447;DHT22;44240;51.840;7.258;2023-12-22T11:35:03;9.40;87.20
58447;DHT22;44240;51.840;7.258;2023-12-22T11:37:32;9.40;86.80
58447;DHT22;44240;51.840;7.258;2023-12-22T11:40:01;9.50;86.20
58447;DHT22;44240;51.840;7.258;2023-12-22T11:42:33;9.50;85.70
58447;DHT22;44240;51.840;7.258;2023-12-22T11:45:03;9.40;85.30
58447;DHT22;44240;51.840;7.258;2023-12-22T11:47:31;9.50;85.10
58447;DHT22;44240;51.840;7.258;2023-12-22T11:49:58;9.40;84.60
58447;DHT22;44240;51.840;7.258;2023-12-22T11:52:27;9.40;84.30
58447;DHT22;44240;51.840;7.258;2023-12-22T11:54:58;9.30;83.70
58447;DHT22;44240;51.840;7.258;2023-12-22T11:59:55;9.20;83.60
58447;DHT22;44240;51.840;7.258;2023-12-22T12:02:22;9.10;83.70
58447;DHT22;44240;51.840;7.258;2023-12-22T12:04:53;9.00;83.60
58447;DHT22;44240;51.840;7.258;2023-12-22T12:07:40;9.00;83.70
58447;DHT22;44240;51.840;7.258;2023-12-22T12:10:08;8.90;83.90
58447;DHT22;44240;51.840;7.258;2023-12-22T12:12:35;8.90;84.00
58447;DHT22;44240;51.840;7.258;2023-12-22T12:15:15;8.90;83.90
58447;DHT22;44240;51.840;7.258;2023-12-22T12:17:43;8.80;84.00
58447;DHT22;44240;51.840;7.258;2023-12-22T12:20:11;8.90;84.00
58447;DHT22;44240;51.840;7.258;2023-12-22T12:22:38;8.80;83.70
58447;DHT22;44240;51.840;7.258;2023-12-22T12:25:10;8.80;83.70
58447;DHT22;44240;51.840;7.258;2023-12-22T12:28:04;8.80;83.70
58447;DHT22;44240;51.840;7.258;2023-12-22T12:30:32;8.80;83.80
58447;DHT22;44240;51.840;7.258;2023-12-22T12:33:09;8.80;83.80
58447;DHT22;44240;51.840;7.258;2023-12-22T12:35:38;8.80;83.80
58447;DHT22;44240;51.840;7.258;2023-12-22T12:38:11;8.80;83.70
58447;DHT22;44240;51.840;7.258;2023-12-22T12:40:39;8.70;83.80
58447;DHT22;44240;51.840;7.258;2023-12-22T12:43:08;8.70;84.00
58447;DHT22;44240;51.840;7.258;2023-12-22T12:45:35;8.70;84.00
58447;DHT22;44240;51.840;7.258;2023-12-22T12:48:02;8.70;83.90
58447;DHT22;44240;51.840;7.258;2023-12-22T12:50:36;8.70;83.90
58447;DHT22;44240;51.840;7.258;2023-12-22T12:53:05;8.70;84.10
58447;DHT22;44240;51.840;7.258;2023-12-22T12:55:32;8.70;84.00
58447;DHT22;44240;51.840;7.258;2023-12-22T12:57:59;8.70;83.90
58447;DHT22;44240;51.840;7.258;2023-12-22T13:00:30;8.70;84.00
58447;DHT22;44240;51.840;7.258;2023-12-22T13:05:32;8.70;84.20
58447;DHT22;44240;51.840;7.258;2023-12-22T13:08:12;8.80;84.30
58447;DHT22;44240;51.840;7.258;2023-12-22T13:10:40;8.70;84.50
58447;DHT22;44240;51.840;7.258;2023-12-22T13:13:08;8.80;84.60
58447;DHT22;44240;51.840;7.258;2023-12-22T13:15:36;8.80;84.70
58447;DHT22;44240;51.840;7.258;2023-12-22T13:18:06;8.80;84.80
58447;DHT22;44240;51.840;7.258;2023-12-22T13:20:33;8.80;84.80
58447;DHT22;44240;51.840;7.258;2023-12-22T13:23:01;8.90;85.00
58447;DHT22;44240;51.840;7.258;2023-12-22T13:25:38;8.80;84.90
58447;DHT22;44240;51.840;7.258;2023-12-22T13:28:05;8.90;84.90
58447;DHT22;44240;51.840;7.258;2023-12-22T13:30:39;8.90;84.90
58447;DHT22;44240;51.840;7.258;2023-12-22T13:33:11;9.00;85.00
58447;DHT22;44240;51.840;7.258;2023-12-22T13:35:38;9.00;85.00
58447;DHT22;44240;51.840;7.258;2023-12-22T13:38:09;9.00;85.00
58447;DHT22;44240;51.840;7.258;2023-12-22T13:40:38;9.10;85.10
58447;DHT22;44240;51.840;7.258;2023-12-22T13:43:06;9.10;85.10
58447;DHT22;44240;51.840;7.258;2023-12-22T13:45:34;9.10;85.10
58447;DHT22;44240;51.840;7.258;2023-12-22T13:48:01;9.20;85.10
58447;DHT22;44240;51.840;7.258;2023-12-22T13:50:28;9.20;85.20
58447;DHT22;44240;51.840;7.258;2023-12-22T13:52:55;9.20;85.30
58447;DHT22;44240;51.840;7.258;2023-12-22T13:55:22;9.30;85.90
58447;DHT22;44240;51.840;7.258;2023-12-22T13:57:59;9.30;86.30
58447;DHT22;44240;51.840;7.258;2023-12-22T14:00:30;9.30;86.70
58447;DHT22;44240;51.840;7.258;2023-12-22T14:02:58;9.40;87.10
58447;DHT22;44240;51.840;7.258;2023-12-22T14:05:25;9.50;87.50
58447;DHT22;44240;51.840;7.258;2023-12-22T14:07:57;9.50;86.60
58447;DHT22;44240;51.840;7.258;2023-12-22T14:10:24;9.40;84.30
58447;DHT22;44240;51.840;7.258;2023-12-22T14:12:51;9.40;83.20
58447;DHT22;44240;51.840;7.258;2023-12-22T14:15:18;9.30;82.90
58447;DHT22;44240;51.840;7.258;2023-12-22T14:17:44;9.20;82.70
58447;DHT22;44240;51.840;7.258;2023-12-22T14:20:11;9.20;82.90
58447;DHT22;44240;51.840;7.258;2023-12-22T14:22:38;9.10;83.20
58447;DHT22;44240;51.840;7.258;2023-12-22T14:25:06;9.10;83.50
58447;DHT22;44240;51.840;7.258;2023-12-22T14:27:33;9.00;83.50
58447;DHT22;44240;51.840;7.258;2023-12-22T14:30:00;9.00;83.60
58447;DHT22;44240;51.840;7.258;2023-12-22T14:32:26;8.90;83.70
58447;DHT22;44240;51.840;7.258;2023-12-22T14:34:53;8.90;84.10
58447;DHT22;44240;51.840;7.258;2023-12-22T14:37:20;8.90;84.30
58447;DHT22;44240;51.840;7.258;2023-12-22T14:39:48;8.90;84.40
58447;DHT22;44240;51.840;7.258;2023-12-22T14:42:14;8.80;84.60
58447;DHT22;44240;51.840;7.258;2023-12-22T14:44:41;8.80;84.70
58447;DHT22;44240;51.840;7.258;2023-12-22T14:47:08;8.90;84.80
58447;DHT22;44240;51.840;7.258;2023-12-22T14:49:39;8.90;84.90
58447;DHT22;44240;51.840;7.258;2023-12-22T14:52:06;8.90;85.10
58447;DHT22;44240;51.840;7.258;2023-12-22T14:54:34;8.90;85.30
58447;DHT22;44240;51.840;7.258;2023-12-22T14:57:01;8.90;85.40
58447;DHT22;44240;51.840;7.258;2023-12-22T14:59:28;8.90;85.60
58447;DHT22;44240;51.840;7.258;2023-12-22T15:01:55;8.90;86.00
58447;DHT22;44240;51.840;7.258;2023-12-22T15:04:21;8.90;86.30
58447;DHT22;44240;51.840;7.258;2023-12-22T15:06:49;8.90;86.70
58447;DHT22;44240;51.840;7.258;2023-12-22T15:09:26;9.00;87.20
58447;DHT22;44240;51.840;7.258;2023-12-22T15:11:53;9.10;87.50
58447;DHT22;44240;51.840;7.258;2023-12-22T15:14:21;9.20;87.90
58447;DHT22;44240;51.840;7.258;2023-12-22T15:16:48;9.30;88.30
58447;DHT22;44240;51.840;7.258;2023-12-22T15:19:18;9.40;88.70
58447;DHT22;44240;51.840;7.258;2023-12-22T15:21:45;9.50;89.00
58447;DHT22;44240;51.840;7.258;2023-12-22T15:24:11;9.60;88.90
58447;DHT22;44240;51.840;7.258;2023-12-22T15:26:38;9.70;88.80
58447;DHT22;44240;51.840;7.258;2023-12-22T15:29:05;9.80;88.70
58447;DHT22;44240;51.840;7.258;2023-12-22T15:31:32;9.80;88.70
58447;DHT22;44240;51.840;7.258;2023-12-22T15:34:03;9.90;88.70
58447;DHT22;44240;51.840;7.258;2023-12-22T15:36:31;10.00;88.60
58447;DHT22;44240;51.840;7.258;2023-12-22T15:38:58;10.00;88.40
58447;DHT22;44240;51.840;7.258;2023-12-22T15:41:29;10.00;88.40
58447;DHT22;44240;51.840;7.258;2023-12-22T15:43:56;10.10;88.20
58447;DHT22;44240;51.840;7.258;2023-12-22T15:46:23;10.10;87.60
58447;DHT22;44240;51.840;7.258;2023-12-22T15:48:50;10.20;86.90
58447;DHT22;44240;51.840;7.258;2023-12-22T15:51:16;10.20;86.20
58447;DHT22;44240;51.840;7.258;2023-12-22T15:53:46;10.30;85.60
58447;DHT22;44240;51.840;7.258;2023-12-22T15:56:13;10.30;85.30
58447;DHT22;44240;51.840;7.258;2023-12-22T15:58:41;10.30;85.20